Maersk Bering — 9VJK2 — position and weather

sailwx.info

Track history (hours):
 
Tides and Currents Weather Stations Pressure Air Temp Water Temp Dewpoint Dewpoint Depression Visibility Wind Speed Wind Dir Waves Ship Positions

Maersk Bering

Last reported at 2018-Feb-13 08:23 UTC. Time now 2018-Feb-22 01:21 UTC.
Position N 37°25' E 025°55'.
Warning: this ship's position is 8 days out of date.

Length 175 m; draft 9.7 m.

Type: Tanker. MMSI: 563654000.

Date/timePositionNaut miles runAvg speedWind from/ knotsBaromVisibWave heightAir tempDewpointWater temp
2018-Feb-13 08:23N 37°25' E 025°55'512.5
2018-Feb-13 08:00N 37°28' E 025°51'256 7.0
2018-Feb-11 19:34N 40°59' E 028°59'333 7.6
2018-Feb-09 23:36N 46°20' E 030°55'112.4
2018-Feb-09 23:29N 46°22' E 030°55'612.2
2018-Feb-09 23:00N 46°28' E 030°55'312.1
2018-Feb-09 22:46N 46°31' E 030°55'2 9.5
2018-Feb-09 22:30N 46°33' E 030°57'40 9.9
2018-Feb-09 18:30N 46°38' E 031°55'8 8.3
2018-Feb-09 17:30N 46°46' E 031°53'11 7.5
2018-Feb-09 16:00N 46°57' E 032°00'0 0.0
2018-Feb-08 01:29N 46°57' E 031°60'0 0.0
2018-Feb-08 00:59N 46°57' E 031°60'0 0.0
2018-Feb-08 00:29N 46°57' E 031°60'0 0.0
2018-Feb-07 23:59N 46°57' E 031°60'0 0.0
2018-Feb-07 23:29N 46°57' E 031°60'0 0.0
2018-Feb-07 22:59N 46°57' E 031°60'0 0.0
2018-Feb-07 22:29N 46°57' E 031°60'0 0.0
2018-Feb-07 21:59N 46°57' E 031°60'0 0.0
2018-Feb-07 21:29N 46°57' E 031°60'0 0.0
2018-Feb-07 09:29N 46°57' E 031°60'0 0.0
2018-Feb-07 08:59N 46°57' E 031°60'0 0.0
2018-Feb-07 08:29N 46°57' E 031°60'0 0.0
2018-Feb-07 07:59N 46°57' E 031°60'0 0.0
2018-Feb-07 07:29N 46°57' E 031°60'0 0.0
2018-Feb-07 06:59N 46°57' E 031°60'0 0.0
2018-Feb-07 06:29N 46°57' E 031°60'0 0.0
2018-Feb-07 05:59N 46°57' E 031°60'0 0.0
2018-Feb-07 05:29N 46°57' E 031°60'0 0.0
2018-Feb-07 04:56N 46°57' E 031°60'0 0.0
2018-Feb-07 04:29N 46°57' E 031°60'0 0.0
2018-Feb-07 03:59N 46°57' E 031°60'0 0.0
2018-Feb-07 03:29N 46°57' E 031°60'0 0.0
2018-Feb-07 02:59N 46°57' E 031°60'0 0.0
2018-Feb-07 02:29N 46°57' E 031°60'0 0.0
2018-Feb-07 01:59N 46°57' E 031°60'0 0.0
2018-Feb-07 01:29N 46°57' E 031°60'0 0.0
2018-Feb-07 00:59N 46°57' E 031°60'0 0.0
2018-Feb-07 00:29N 46°57' E 031°60'0 0.0
2018-Feb-06 23:59N 46°57' E 031°60'0 0.0
2018-Feb-06 23:29N 46°57' E 031°60'0 0.0
2018-Feb-06 22:59N 46°57' E 031°60'0 0.0
2018-Feb-06 22:29N 46°57' E 031°60'0 0.0
2018-Feb-06 21:59N 46°57' E 031°60'0 0.0
2018-Feb-06 21:29N 46°57' E 031°60'0 0.0
2018-Feb-06 20:59N 46°57' E 031°60'0 0.0
2018-Feb-06 20:29N 46°57' E 031°60'0 0.0
2018-Feb-06 19:59N 46°57' E 031°60'0 0.0
2018-Feb-06 19:29N 46°57' E 031°60'0 0.0
2018-Feb-06 18:59N 46°57' E 031°60'0 0.0
2018-Feb-06 18:29N 46°57' E 031°60'0 0.0
2018-Feb-06 17:59N 46°57' E 031°60'0 0.0
2018-Feb-06 17:29N 46°57' E 031°60'0 0.0
2018-Feb-06 16:56N 46°57' E 031°60'0 0.0
2018-Feb-06 16:29N 46°57' E 031°60'0 0.0
2018-Feb-06 15:59N 46°57' E 031°60'0 0.0
2018-Feb-06 15:29N 46°57' E 031°60'0 0.0
2018-Feb-06 14:59N 46°57' E 031°60'0 0.0
2018-Feb-06 14:29N 46°57' E 031°60'0 0.0
2018-Feb-06 08:35N 46°57' E 031°60'0 0.0
2018-Feb-06 08:29N 46°57' E 031°60'0 0.0
2018-Feb-06 07:59N 46°57' E 031°60'0 0.0
2018-Feb-06 07:29N 46°57' E 031°60'0 0.0
2018-Feb-06 06:59N 46°57' E 031°60'0 0.0
2018-Feb-06 06:29N 46°57' E 031°60'0 0.0
2018-Feb-06 05:59N 46°57' E 031°60'0 0.0
2018-Feb-06 05:26N 46°57' E 031°60'0 0.0
2018-Feb-06 04:59N 46°57' E 031°60'0 0.0
2018-Feb-06 04:26N 46°57' E 031°60'0 0.0
2018-Feb-06 03:56N 46°57' E 031°60'0 0.0
2018-Feb-06 03:29N 46°57' E 031°60'0 0.0
2018-Feb-06 02:59N 46°57' E 031°60'0 0.0
2018-Feb-06 02:29N 46°57' E 031°60'0 0.0
2018-Feb-06 01:59N 46°57' E 031°60'0 0.0
2018-Feb-06 01:29N 46°57' E 031°60'0 0.0
2018-Feb-06 00:59N 46°57' E 031°60'0 0.0
2018-Feb-06 00:29N 46°57' E 031°60'0 0.0
2018-Feb-05 23:59N 46°57' E 031°60'0 0.0
2018-Feb-05 23:29N 46°57' E 031°60'0 0.0
2018-Feb-05 22:59N 46°57' E 031°60'0 0.0
2018-Feb-05 22:29N 46°57' E 031°60'0 0.0
2018-Feb-05 21:59N 46°57' E 031°60'0 0.0
2018-Feb-05 21:29N 46°57' E 031°60'0 0.0
2018-Feb-05 20:59N 46°57' E 031°60'0 0.0
2018-Feb-05 20:29N 46°57' E 031°60'0 0.0
2018-Feb-05 19:59N 46°57' E 031°60'0 0.0
2018-Feb-05 19:29N 46°57' E 031°60'0 0.0
2018-Feb-05 18:59N 46°57' E 031°60'0 0.0
2018-Feb-05 18:29N 46°57' E 031°60'0 0.0
2018-Feb-05 17:59N 46°57' E 031°60'0 0.0
2018-Feb-05 17:29N 46°57' E 031°60'0 0.0
2018-Feb-05 16:59N 46°57' E 031°60'0 0.0
2018-Feb-05 16:29N 46°57' E 031°60'0 0.0
2018-Feb-05 15:59N 46°57' E 031°60'0 0.0
2018-Feb-05 15:29N 46°57' E 031°60'0 0.0
2018-Feb-05 14:59N 46°57' E 031°60'0 0.0
2018-Feb-05 14:29N 46°57' E 031°60'0 0.0
2018-Feb-05 13:59N 46°57' E 031°60'0 0.0
2018-Feb-05 13:29N 46°57' E 031°60'0 0.0
2018-Feb-05 12:59N 46°57' E 031°60'0 0.0
2018-Feb-05 12:29N 46°57' E 031°60'0 0.0
2018-Feb-05 11:56N 46°57' E 031°60'0 0.0
2018-Feb-05 11:29N 46°57' E 031°60'0 0.0
2018-Feb-05 10:59N 46°57' E 031°60'0 0.0
2018-Feb-05 10:29N 46°57' E 031°60'0 0.0
2018-Feb-05 09:59N 46°57' E 031°60'0 0.0
2018-Feb-05 09:23N 46°57' E 031°60'0 0.0
2018-Feb-05 08:59N 46°57' E 031°60'0 0.0
2018-Feb-05 08:29N 46°57' E 031°60'0 0.0
2018-Feb-05 07:59N 46°57' E 031°60'0 0.0
2018-Feb-05 07:29N 46°57' E 031°60'0 0.0
2018-Feb-05 06:59N 46°57' E 031°60'0 0.0
2018-Feb-05 06:29N 46°57' E 031°60'0 0.0
2018-Feb-05 05:29N 46°57' E 031°60'0 0.0
2018-Feb-05 04:59N 46°57' E 031°60'0 0.0
2018-Feb-05 04:29N 46°57' E 031°60'0 0.0
2018-Feb-05 03:59N 46°57' E 031°60'0 0.0
2018-Feb-05 03:29N 46°57' E 031°60'0 0.0
2018-Feb-05 02:59N 46°57' E 031°60'0 0.0
2018-Feb-05 02:29N 46°57' E 031°60'0 0.0
2018-Feb-05 01:59N 46°57' E 031°60'0 0.0
2018-Feb-05 01:29N 46°57' E 031°60'0 0.0
2018-Feb-05 00:56N 46°57' E 031°60'0 0.0
2018-Feb-05 00:29N 46°57' E 031°60'0 0.0
2018-Feb-04 23:59N 46°57' E 031°60'0 0.0
2018-Feb-04 23:26N 46°57' E 031°60'0 0.0
2018-Feb-04 22:59N 46°57' E 031°60'0 0.0
2018-Feb-04 22:29N 46°57' E 031°60'0 0.0
2018-Feb-04 21:59N 46°57' E 031°60'0 0.0
2018-Feb-04 21:29N 46°57' E 031°60'0 0.0
2018-Feb-04 20:59N 46°57' E 031°60'0 0.0
2018-Feb-04 19:59N 46°57' E 031°60'0 0.0
2018-Feb-04 19:29N 46°57' E 031°60'0 0.0
2018-Feb-04 18:59N 46°57' E 031°60'0 0.0
2018-Feb-04 18:29N 46°57' E 031°60'0 0.0
2018-Feb-04 17:59N 46°57' E 031°60'0 0.0
2018-Feb-04 17:29N 46°57' E 031°60'0 0.0
2018-Feb-04 15:29N 46°57' E 031°60'0 0.0
2018-Feb-04 14:59N 46°57' E 031°60'0 0.0
2018-Feb-04 14:29N 46°57' E 031°60'0 0.0
2018-Feb-04 13:59N 46°57' E 031°60'0 0.0
2018-Feb-04 13:29N 46°57' E 031°60'0 0.0
2018-Feb-04 12:59N 46°57' E 031°60'0 0.0
2018-Feb-04 12:29N 46°57' E 031°60'0 0.0
2018-Feb-04 11:59N 46°57' E 031°60'0 0.0
2018-Feb-04 11:29N 46°57' E 031°60'0 0.1
2018-Feb-04 10:00N 46°57' E 031°60'6 5.5
2018-Feb-04 09:00N 46°51' E 031°58'611.6
2018-Feb-04 08:30N 46°47' E 031°53'5 9.9
2018-Feb-04 08:00N 46°42' E 031°56'511.0
2018-Feb-04 07:30N 46°37' E 031°52'611.9
2018-Feb-04 06:59N 46°36' E 031°44'611.8
2018-Feb-04 06:30N 46°35' E 031°35'5 9.9
2018-Feb-04 06:01N 46°35' E 031°28'611.7
2018-Feb-04 05:29N 46°35' E 031°19'813.1
2018-Feb-04 04:52N 46°35' E 031°08'512.5
2018-Feb-04 04:31N 46°34' E 031°01'3 6.3
2018-Feb-04 04:00N 46°32' E 030°57'3 6.7
2018-Feb-04 03:31N 46°29' E 030°57'5 9.4
2018-Feb-04 02:59N 46°24' E 030°57'511.1
2018-Feb-04 02:30N 46°19' E 030°57'  
Track history (hours):
 
Tides and Currents Weather Stations Pressure Air Temp Water Temp Dewpoint Dewpoint Depression Visibility Wind Speed Wind Dir Waves Ship Positions

Maersk Bering

Last reported at 2018-Feb-13 08:23 UTC. Time now 2018-Feb-22 01:21 UTC.
Position N 37°25' E 025°55'.
Warning: this ship's position is 8 days out of date.

Length 175 m; draft 9.7 m.

Type: Tanker. MMSI: 563654000.

Date/timePositionNaut miles runAvg speedWind from/ knotsBaromVisibWave heightAir tempDewpointWater temp
2018-Feb-13 08:23N 37°25' E 025°55'512.5
2018-Feb-13 08:00N 37°28' E 025°51'256 7.0
2018-Feb-11 19:34N 40°59' E 028°59'333 7.6
2018-Feb-09 23:36N 46°20' E 030°55'112.4
2018-Feb-09 23:29N 46°22' E 030°55'612.2
2018-Feb-09 23:00N 46°28' E 030°55'312.1
2018-Feb-09 22:46N 46°31' E 030°55'2 9.5
2018-Feb-09 22:30N 46°33' E 030°57'40 9.9
2018-Feb-09 18:30N 46°38' E 031°55'8 8.3
2018-Feb-09 17:30N 46°46' E 031°53'11 7.5
2018-Feb-09 16:00N 46°57' E 032°00'0 0.0
2018-Feb-08 01:29N 46°57' E 031°60'0 0.0
2018-Feb-08 00:59N 46°57' E 031°60'0 0.0
2018-Feb-08 00:29N 46°57' E 031°60'0 0.0
2018-Feb-07 23:59N 46°57' E 031°60'0 0.0
2018-Feb-07 23:29N 46°57' E 031°60'0 0.0
2018-Feb-07 22:59N 46°57' E 031°60'0 0.0
2018-Feb-07 22:29N 46°57' E 031°60'0 0.0
2018-Feb-07 21:59N 46°57' E 031°60'0 0.0
2018-Feb-07 21:29N 46°57' E 031°60'0 0.0
2018-Feb-07 09:29N 46°57' E 031°60'0 0.0
2018-Feb-07 08:59N 46°57' E 031°60'0 0.0
2018-Feb-07 08:29N 46°57' E 031°60'0 0.0
2018-Feb-07 07:59N 46°57' E 031°60'0 0.0
2018-Feb-07 07:29N 46°57' E 031°60'0 0.0
2018-Feb-07 06:59N 46°57' E 031°60'0 0.0
2018-Feb-07 06:29N 46°57' E 031°60'0 0.0
2018-Feb-07 05:59N 46°57' E 031°60'0 0.0
2018-Feb-07 05:29N 46°57' E 031°60'0 0.0
2018-Feb-07 04:56N 46°57' E 031°60'0 0.0
2018-Feb-07 04:29N 46°57' E 031°60'0 0.0
2018-Feb-07 03:59N 46°57' E 031°60'0 0.0
2018-Feb-07 03:29N 46°57' E 031°60'0 0.0
2018-Feb-07 02:59N 46°57' E 031°60'0 0.0
2018-Feb-07 02:29N 46°57' E 031°60'0 0.0
2018-Feb-07 01:59N 46°57' E 031°60'0 0.0
2018-Feb-07 01:29N 46°57' E 031°60'0 0.0
2018-Feb-07 00:59N 46°57' E 031°60'0 0.0
2018-Feb-07 00:29N 46°57' E 031°60'0 0.0
2018-Feb-06 23:59N 46°57' E 031°60'0 0.0
2018-Feb-06 23:29N 46°57' E 031°60'0 0.0
2018-Feb-06 22:59N 46°57' E 031°60'0 0.0
2018-Feb-06 22:29N 46°57' E 031°60'0 0.0
2018-Feb-06 21:59N 46°57' E 031°60'0 0.0
2018-Feb-06 21:29N 46°57' E 031°60'0 0.0
2018-Feb-06 20:59N 46°57' E 031°60'0 0.0
2018-Feb-06 20:29N 46°57' E 031°60'0 0.0
2018-Feb-06 19:59N 46°57' E 031°60'0 0.0
2018-Feb-06 19:29N 46°57' E 031°60'0 0.0
2018-Feb-06 18:59N 46°57' E 031°60'0 0.0
2018-Feb-06 18:29N 46°57' E 031°60'0 0.0
2018-Feb-06 17:59N 46°57' E 031°60'0 0.0
2018-Feb-06 17:29N 46°57' E 031°60'0 0.0
2018-Feb-06 16:56N 46°57' E 031°60'0 0.0
2018-Feb-06 16:29N 46°57' E 031°60'0 0.0
2018-Feb-06 15:59N 46°57' E 031°60'0 0.0
2018-Feb-06 15:29N 46°57' E 031°60'0 0.0
2018-Feb-06 14:59N 46°57' E 031°60'0 0.0
2018-Feb-06 14:29N 46°57' E 031°60'0 0.0
2018-Feb-06 08:35N 46°57' E 031°60'0 0.0
2018-Feb-06 08:29N 46°57' E 031°60'0 0.0
2018-Feb-06 07:59N 46°57' E 031°60'0 0.0
2018-Feb-06 07:29N 46°57' E 031°60'0 0.0
2018-Feb-06 06:59N 46°57' E 031°60'0 0.0
2018-Feb-06 06:29N 46°57' E 031°60'0 0.0
2018-Feb-06 05:59N 46°57' E 031°60'0 0.0
2018-Feb-06 05:26N 46°57' E 031°60'0 0.0
2018-Feb-06 04:59N 46°57' E 031°60'0 0.0
2018-Feb-06 04:26N 46°57' E 031°60'0 0.0
2018-Feb-06 03:56N 46°57' E 031°60'0 0.0
2018-Feb-06 03:29N 46°57' E 031°60'0 0.0
2018-Feb-06 02:59N 46°57' E 031°60'0 0.0
2018-Feb-06 02:29N 46°57' E 031°60'0 0.0
2018-Feb-06 01:59N 46°57' E 031°60'0 0.0
2018-Feb-06 01:29N 46°57' E 031°60'0 0.0
2018-Feb-06 00:59N 46°57' E 031°60'0 0.0
2018-Feb-06 00:29N 46°57' E 031°60'0 0.0
2018-Feb-05 23:59N 46°57' E 031°60'0 0.0
2018-Feb-05 23:29N 46°57' E 031°60'0 0.0
2018-Feb-05 22:59N 46°57' E 031°60'0 0.0
2018-Feb-05 22:29N 46°57' E 031°60'0 0.0
2018-Feb-05 21:59N 46°57' E 031°60'0 0.0
2018-Feb-05 21:29N 46°57' E 031°60'0 0.0
2018-Feb-05 20:59N 46°57' E 031°60'0 0.0
2018-Feb-05 20:29N 46°57' E 031°60'0 0.0
2018-Feb-05 19:59N 46°57' E 031°60'0 0.0
2018-Feb-05 19:29N 46°57' E 031°60'0 0.0
2018-Feb-05 18:59N 46°57' E 031°60'0 0.0
2018-Feb-05 18:29N 46°57' E 031°60'0 0.0
2018-Feb-05 17:59N 46°57' E 031°60'0 0.0
2018-Feb-05 17:29N 46°57' E 031°60'0 0.0
2018-Feb-05 16:59N 46°57' E 031°60'0 0.0
2018-Feb-05 16:29N 46°57' E 031°60'0 0.0
2018-Feb-05 15:59N 46°57' E 031°60'0 0.0
2018-Feb-05 15:29N 46°57' E 031°60'0 0.0
2018-Feb-05 14:59N 46°57' E 031°60'0 0.0
2018-Feb-05 14:29N 46°57' E 031°60'0 0.0
2018-Feb-05 13:59N 46°57' E 031°60'0 0.0
2018-Feb-05 13:29N 46°57' E 031°60'0 0.0
2018-Feb-05 12:59N 46°57' E 031°60'0 0.0
2018-Feb-05 12:29N 46°57' E 031°60'0 0.0
2018-Feb-05 11:56N 46°57' E 031°60'0 0.0
2018-Feb-05 11:29N 46°57' E 031°60'0 0.0
2018-Feb-05 10:59N 46°57' E 031°60'0 0.0
2018-Feb-05 10:29N 46°57' E 031°60'0 0.0
2018-Feb-05 09:59N 46°57' E 031°60'0 0.0
2018-Feb-05 09:23N 46°57' E 031°60'0 0.0
2018-Feb-05 08:59N 46°57' E 031°60'0 0.0
2018-Feb-05 08:29N 46°57' E 031°60'0 0.0
2018-Feb-05 07:59N 46°57' E 031°60'0 0.0
2018-Feb-05 07:29N 46°57' E 031°60'0 0.0
2018-Feb-05 06:59N 46°57' E 031°60'0 0.0
2018-Feb-05 06:29N 46°57' E 031°60'0 0.0
2018-Feb-05 05:29N 46°57' E 031°60'0 0.0
2018-Feb-05 04:59N 46°57' E 031°60'0 0.0
2018-Feb-05 04:29N 46°57' E 031°60'0 0.0
2018-Feb-05 03:59N 46°57' E 031°60'0 0.0
2018-Feb-05 03:29N 46°57' E 031°60'0 0.0
2018-Feb-05 02:59N 46°57' E 031°60'0 0.0
2018-Feb-05 02:29N 46°57' E 031°60'0 0.0
2018-Feb-05 01:59N 46°57' E 031°60'0 0.0
2018-Feb-05 01:29N 46°57' E 031°60'0 0.0
2018-Feb-05 00:56N 46°57' E 031°60'0 0.0
2018-Feb-05 00:29N 46°57' E 031°60'0 0.0
2018-Feb-04 23:59N 46°57' E 031°60'0 0.0
2018-Feb-04 23:26N 46°57' E 031°60'0 0.0
2018-Feb-04 22:59N 46°57' E 031°60'0 0.0
2018-Feb-04 22:29N 46°57' E 031°60'0 0.0
2018-Feb-04 21:59N 46°57' E 031°60'0 0.0
2018-Feb-04 21:29N 46°57' E 031°60'0 0.0
2018-Feb-04 20:59N 46°57' E 031°60'0 0.0
2018-Feb-04 19:59N 46°57' E 031°60'0 0.0
2018-Feb-04 19:29N 46°57' E 031°60'0 0.0
2018-Feb-04 18:59N 46°57' E 031°60'0 0.0
2018-Feb-04 18:29N 46°57' E 031°60'0 0.0
2018-Feb-04 17:59N 46°57' E 031°60'0 0.0
2018-Feb-04 17:29N 46°57' E 031°60'0 0.0
2018-Feb-04 15:29N 46°57' E 031°60'0 0.0
2018-Feb-04 14:59N 46°57' E 031°60'0 0.0
2018-Feb-04 14:29N 46°57' E 031°60'0 0.0
2018-Feb-04 13:59N 46°57' E 031°60'0 0.0
2018-Feb-04 13:29N 46°57' E 031°60'0 0.0
2018-Feb-04 12:59N 46°57' E 031°60'0 0.0
2018-Feb-04 12:29N 46°57' E 031°60'0 0.0
2018-Feb-04 11:59N 46°57' E 031°60'0 0.0
2018-Feb-04 11:29N 46°57' E 031°60'0 0.1
2018-Feb-04 10:00N 46°57' E 031°60'6 5.5
2018-Feb-04 09:00N 46°51' E 031°58'611.6
2018-Feb-04 08:30N 46°47' E 031°53'5 9.9
2018-Feb-04 08:00N 46°42' E 031°56'511.0
2018-Feb-04 07:30N 46°37' E 031°52'611.9
2018-Feb-04 06:59N 46°36' E 031°44'611.8
2018-Feb-04 06:30N 46°35' E 031°35'5 9.9
2018-Feb-04 06:01N 46°35' E 031°28'611.7
2018-Feb-04 05:29N 46°35' E 031°19'813.1
2018-Feb-04 04:52N 46°35' E 031°08'512.5
2018-Feb-04 04:31N 46°34' E 031°01'3 6.3
2018-Feb-04 04:00N 46°32' E 030°57'3 6.7
2018-Feb-04 03:31N 46°29' E 030°57'5 9.4
2018-Feb-04 02:59N 46°24' E 030°57'511.1
2018-Feb-04 02:30N 46°19' E 030°57'  

Dump ship's entire track history